Time;durP1;ratioP1;P1;durP2;ratioP2;P2;SDS_P1;SDS_P2;PMS_P1;PMS_P2;Temp;Humidity;BMP_temperature;BMP_pressure;BME280_temperature;BME280_humidity;BME280_pressure;Samples;Min_cycle;Max_cycle;Signal;HPM_P1;HPM_P2
2021/12/10 00:01:53;;;;;;;;;2.00;0.00;;;;;7.59;73.22;98908.16;5080488;27;45774;-74
2021/12/10 00:04:23;;;;;;;;;0.00;0.00;;;;;7.49;73.42;98873.25;5111948;27;45871;-74
2021/12/10 00:06:56;;;;;;;;;1.00;1.00;;;;;7.52;72.94;98875.50;5112792;27;45388;-73
2021/12/10 00:09:30;;;;;;;;;0.00;0.00;;;;;7.46;73.80;98862.00;5113314;27;45512;-78
2021/12/10 00:12:08;;;;;;;;;0.00;0.00;;;;;7.42;73.42;98837.06;5105880;27;45832;-78
2021/12/10 00:14:36;;;;;;;;;0.00;0.00;;;;;7.32;74.10;98831.34;5094551;27;45685;-74
2021/12/10 00:17:11;;;;;;;;;1.00;1.00;;;;;7.29;75.18;98831.84;5113089;27;45498;-78
2021/12/10 00:19:46;;;;;;;;;0.00;0.00;;;;;7.21;74.16;98825.66;5110046;27;44852;-75
2021/12/10 00:22:30;;;;;;;;;1.00;1.00;;;;;7.21;74.05;98781.22;5100655;27;45503;-78
2021/12/10 00:25:04;;;;;;;;;0.00;0.00;;;;;7.16;74.55;98781.91;5112985;27;45424;-77
2021/12/10 00:27:32;;;;;;;;;1.00;0.00;;;;;7.14;75.82;98764.13;5094029;27;45433;-75
2021/12/10 00:30:13;;;;;;;;;1.33;1.00;;;;;7.15;73.90;98744.81;5113109;27;45345;-77
2021/12/10 00:33:00;;;;;;;;;1.00;1.00;;;;;7.14;74.96;98740.44;5112278;27;45789;-75
2021/12/10 00:35:29;;;;;;;;;0.33;0.33;;;;;7.15;75.03;98763.88;5087866;27;45442;-75
2021/12/10 00:37:59;;;;;;;;;1.00;0.00;;;;;7.09;74.77;98775.75;5114512;27;45415;-76
2021/12/10 00:40:25;;;;;;;;;0.00;0.00;;;;;7.12;75.45;98783.44;5094252;27;45463;-74
2021/12/10 00:42:54;;;;;;;;;0.00;0.00;;;;;7.17;75.65;98799.09;5112936;27;46195;-77
2021/12/10 00:45:21;;;;;;;;;0.67;0.67;;;;;7.21;75.38;98762.94;5116461;27;45456;-76
2021/12/10 00:47:53;;;;;;;;;0.67;0.00;;;;;7.19;74.46;98732.38;5116204;27;45894;-74
2021/12/10 00:50:27;;;;;;;;;0.00;0.00;;;;;7.16;74.80;98732.84;5107537;27;45601;-74
2021/12/10 00:53:06;;;;;;;;;0.00;0.00;;;;;7.20;75.05;98734.03;5106956;27;45945;-74
2021/12/10 00:55:32;;;;;;;;;0.00;0.00;;;;;7.24;75.50;98721.59;5101311;27;45915;-77
2021/12/10 00:58:16;;;;;;;;;1.00;1.00;;;;;7.24;75.22;98715.31;5115648;27;45771;-76
2021/12/10 01:00:56;;;;;;;;;0.00;0.00;;;;;7.27;75.72;98689.47;5091604;27;47007;-78
2021/12/10 01:03:29;;;;;;;;;0.00;0.00;;;;;7.28;75.30;98672.88;5115510;27;45756;-77
2021/12/10 01:06:02;;;;;;;;;0.00;0.00;;;;;7.29;75.39;98655.44;5098219;27;45440;-75
2021/12/10 01:08:30;;;;;;;;;0.00;0.00;;;;;7.32;75.92;98649.53;5103677;27;45459;-75
2021/12/10 01:11:03;;;;;;;;;1.00;0.00;;;;;7.30;75.09;98654.38;5113247;27;45396;-77
2021/12/10 01:13:32;;;;;;;;;0.00;0.00;;;;;7.27;74.98;98649.38;5108237;27;45847;-79
2021/12/10 01:24:51;;;;;;;;;0.67;0.67;;;;;7.16;75.18;98598.47;5115862;27;45740;-77
2021/12/10 01:27:29;;;;;;;;;0.33;0.00;;;;;7.10;75.32;98611.13;5097339;27;45343;-78
2021/12/10 01:30:05;;;;;;;;;0.00;0.00;;;;;7.12;75.28;98592.63;5115511;27;45902;-76
2021/12/10 01:32:37;;;;;;;;;0.00;0.00;;;;;7.17;75.69;98595.50;5106408;27;46171;-77
2021/12/10 01:35:08;;;;;;;;;0.33;0.00;;;;;7.20;75.63;98611.38;5116727;27;45620;-77
2021/12/10 01:37:34;;;;;;;;;0.67;0.00;;;;;7.23;75.16;98599.97;5096745;27;45713;-79
2021/12/10 01:40:04;;;;;;;;;0.00;0.00;;;;;7.25;75.56;98589.66;5116573;27;45634;-76
2021/12/10 01:42:38;;;;;;;;;0.00;0.00;;;;;7.27;75.65;98592.13;5116196;27;45773;-79
2021/12/10 01:45:18;;;;;;;;;0.00;0.00;;;;;7.27;74.96;98572.22;5117420;27;46549;-77
2021/12/10 01:48:02;;;;;;;;;1.00;1.00;;;;;7.21;75.98;98585.75;5089026;27;45635;-79
2021/12/10 01:50:29;;;;;;;;;0.00;0.00;;;;;7.30;75.96;98590.84;5115538;27;45705;-74
2021/12/10 01:53:04;;;;;;;;;0.00;0.00;;;;;7.27;75.85;98586.69;5116576;27;45488;-74
2021/12/10 01:55:32;;;;;;;;;0.00;0.00;;;;;7.45;75.24;98606.69;5114287;27;45347;-78
2021/12/10 01:57:58;;;;;;;;;0.00;0.00;;;;;7.56;75.73;98601.19;5095710;27;45920;-74
2021/12/10 02:00:29;;;;;;;;;0.00;0.00;;;;;7.68;75.58;98601.16;5112154;27;45381;-74
2021/12/10 02:03:00;;;;;;;;;0.00;0.00;;;;;7.80;75.06;98584.75;5114429;27;45727;-78
2021/12/10 02:05:25;;;;;;;;;0.00;0.00;;;;;7.95;74.97;98592.38;5114932;27;45792;-74
2021/12/10 02:07:55;;;;;;;;;0.00;0.00;;;;;8.06;74.69;98577.00;5106783;27;45464;-79
2021/12/10 02:10:26;;;;;;;;;0.00;0.00;;;;;8.13;74.05;98575.78;5091116;27;45546;-73
2021/12/10 02:12:52;;;;;;;;;0.00;0.00;;;;;8.21;73.14;98566.34;5111829;27;46013;-77
2021/12/10 02:15:20;;;;;;;;;0.00;0.00;;;;;8.27;73.89;98559.06;5114435;27;45913;-78
2021/12/10 02:17:48;;;;;;;;;0.00;0.00;;;;;8.25;72.43;98542.13;5114255;27;45697;-77
2021/12/10 02:20:18;;;;;;;;;0.00;0.00;;;;;8.27;72.73;98553.63;5115064;27;45454;-75
2021/12/10 02:22:46;;;;;;;;;0.00;0.00;;;;;8.35;73.63;98549.63;5115421;27;45703;-74
2021/12/10 02:25:17;;;;;;;;;0.00;0.00;;;;;8.45;72.72;98539.72;5115560;27;45494;-77
2021/12/10 02:27:42;;;;;;;;;0.00;0.00;;;;;8.50;72.33;98533.50;5105103;27;45493;-78
2021/12/10 02:30:12;;;;;;;;;0.00;0.00;;;;;8.55;72.38;98528.13;5092499;27;45397;-72
2021/12/10 02:32:38;;;;;;;;;0.00;0.00;;;;;8.51;72.02;98526.97;5115262;27;45516;-71
2021/12/10 02:35:07;;;;;;;;;0.00;0.00;;;;;8.66;72.22;98523.66;5114338;27;45838;-73
2021/12/10 02:37:33;;;;;;;;;0.00;0.00;;;;;8.69;72.22;98520.41;5113621;27;45454;-74
2021/12/10 02:39:59;;;;;;;;;0.00;0.00;;;;;8.77;71.29;98513.69;5113928;27;45733;-78
2021/12/10 02:42:25;;;;;;;;;0.00;0.00;;;;;8.76;71.50;98507.41;5113766;27;45677;-78
2021/12/10 02:44:51;;;;;;;;;0.00;0.00;;;;;8.79;71.33;98497.88;5095971;27;47368;-77
2021/12/10 02:47:20;;;;;;;;;0.00;0.00;;;;;8.78;71.45;98491.56;5113966;27;45680;-73
2021/12/10 02:49:46;;;;;;;;;0.00;0.00;;;;;8.86;70.89;98497.69;5095381;27;45867;-72
2021/12/10 02:52:13;;;;;;;;;0.00;0.00;;;;;8.86;70.10;98500.41;5104786;27;45754;-73
2021/12/10 02:54:39;;;;;;;;;0.00;0.00;;;;;8.83;70.77;98502.56;5094384;27;46849;-74
2021/12/10 02:57:12;;;;;;;;;0.00;0.00;;;;;8.86;70.20;98490.28;5112604;27;45766;-75
2021/12/10 02:59:38;;;;;;;;;0.00;0.00;;;;;8.93;70.00;98499.13;5111539;27;45511;-72
2021/12/10 03:02:13;;;;;;;;;0.00;0.00;;;;;8.95;70.28;98507.94;5105384;27;45537;-78
2021/12/10 03:04:39;;;;;;;;;0.00;0.00;;;;;9.01;70.65;98492.41;5107651;27;45480;-74
2021/12/10 03:07:12;;;;;;;;;0.00;0.00;;;;;9.08;70.62;98493.03;5113673;27;45773;-78
2021/12/10 03:09:39;;;;;;;;;0.00;0.00;;;;;9.14;70.64;98502.13;5115119;27;45680;-77
2021/12/10 03:12:06;;;;;;;;;0.00;0.00;;;;;9.20;70.68;98501.09;5107273;27;45841;-72
2021/12/10 03:14:37;;;;;;;;;0.00;0.00;;;;;9.29;70.04;98498.75;5115047;27;45389;-73
2021/12/10 03:17:07;;;;;;;;;0.00;0.00;;;;;9.32;70.26;98501.78;5113898;27;45551;-70
2021/12/10 03:19:33;;;;;;;;;0.00;0.00;;;;;9.40;70.85;98500.53;5106934;27;45676;-70
2021/12/10 03:21:59;;;;;;;;;0.00;0.00;;;;;9.47;70.39;98501.13;5115564;27;45738;-78
2021/12/10 03:24:27;;;;;;;;;0.00;0.00;;;;;9.49;70.37;98484.47;5108070;27;45769;-76
2021/12/10 03:26:57;;;;;;;;;0.00;0.00;;;;;9.57;70.34;98485.94;5081935;27;45450;-73
2021/12/10 03:29:25;;;;;;;;;1.00;0.00;;;;;9.61;69.58;98495.25;5086357;27;45497;-71
2021/12/10 03:31:53;;;;;;;;;0.00;0.00;;;;;9.56;70.03;98482.34;5091359;27;46883;-76
2021/12/10 03:34:19;;;;;;;;;0.00;0.00;;;;;9.71;70.19;98501.69;5112326;27;46156;-75
2021/12/10 03:36:48;;;;;;;;;0.00;0.00;;;;;9.69;70.06;98503.84;5094852;27;44894;-71
2021/12/10 03:39:16;;;;;;;;;1.00;0.00;;;;;9.76;69.96;98502.78;5077160;27;45862;-76
2021/12/10 03:41:42;;;;;;;;;0.00;0.00;;;;;9.76;69.90;98500.06;5116499;27;45708;-72
2021/12/10 03:44:09;;;;;;;;;0.00;0.00;;;;;9.83;70.10;98509.69;5114360;27;46174;-73
2021/12/10 03:46:34;;;;;;;;;0.00;0.00;;;;;9.81;70.07;98500.13;5116011;27;45444;-72
2021/12/10 03:49:03;;;;;;;;;0.00;0.00;;;;;9.86;70.36;98511.91;5117986;27;45754;-75
2021/12/10 03:51:30;;;;;;;;;0.67;0.00;;;;;9.94;70.07;98515.28;5096632;27;45833;-72
2021/12/10 03:53:57;;;;;;;;;0.00;0.00;;;;;9.97;70.20;98514.75;5113901;27;45854;-72
2021/12/10 03:56:24;;;;;;;;;1.67;1.67;;;;;9.96;69.88;98507.66;5113748;27;45835;-75
2021/12/10 03:58:51;;;;;;;;;1.00;1.00;;;;;9.97;70.15;98509.28;5106376;27;45495;-73
2021/12/10 04:01:21;;;;;;;;;1.00;1.00;;;;;10.00;70.25;98508.75;5079129;27;47078;-71
2021/12/10 04:03:49;;;;;;;;;0.00;0.00;;;;;10.08;70.31;98522.00;5083769;27;47064;-75
2021/12/10 04:06:15;;;;;;;;;0.33;0.33;;;;;10.07;69.65;98514.84;5112105;27;45504;-75
2021/12/10 04:08:41;;;;;;;;;1.67;0.00;;;;;10.14;69.68;98520.13;5107463;27;45736;-70
2021/12/10 04:11:08;;;;;;;;;1.00;0.00;;;;;10.19;69.99;98512.75;5115739;27;45381;-75
2021/12/10 04:13:34;;;;;;;;;1.00;1.00;;;;;10.26;70.08;98518.03;5091253;27;47001;-75
2021/12/10 04:16:00;;;;;;;;;1.00;1.00;;;;;10.28;69.27;98521.31;5116953;27;45495;-71
2021/12/10 04:18:26;;;;;;;;;0.67;0.00;;;;;10.31;69.51;98520.78;5116424;27;45508;-74
2021/12/10 04:20:51;;;;;;;;;0.33;0.33;;;;;10.32;70.18;98516.97;5116329;27;45658;-71
2021/12/10 04:23:20;;;;;;;;;2.00;2.00;;;;;10.32;69.98;98511.50;5100920;27;46936;-75
2021/12/10 04:25:46;;;;;;;;;3.00;1.00;;;;;10.36;69.68;98517.28;5116558;27;45708;-72
2021/12/10 04:28:15;;;;;;;;;2.00;0.67;;;;;10.39;69.65;98506.66;5115970;27;45396;-72
2021/12/10 04:30:42;;;;;;;;;0.67;0.00;;;;;10.44;69.59;98513.28;5093710;27;47025;-76
2021/12/10 04:33:12;;;;;;;;;1.00;0.33;;;;;10.49;69.59;98518.78;5108383;27;45799;-75
2021/12/10 04:35:43;;;;;;;;;2.67;1.00;;;;;10.46;69.31;98517.38;5113060;27;45453;-72
2021/12/10 04:38:09;;;;;;;;;1.00;1.00;;;;;10.53;69.77;98512.50;5119003;27;45451;-74
2021/12/10 04:40:35;;;;;;;;;2.67;1.00;;;;;10.56;69.65;98528.41;5120134;27;45566;-75
2021/12/10 04:43:02;;;;;;;;;2.00;1.00;;;;;10.57;69.35;98521.03;5115588;27;45407;-73
2021/12/10 04:45:27;;;;;;;;;2.33;1.00;;;;;10.57;68.69;98530.06;5106063;27;45863;-75
2021/12/10 04:47:53;;;;;;;;;1.00;1.00;;;;;10.63;69.27;98519.13;5097073;27;45440;-75
2021/12/10 04:50:22;;;;;;;;;2.00;1.00;;;;;10.62;68.89;98526.53;5115237;27;45702;-72
2021/12/10 04:52:49;;;;;;;;;3.33;1.00;;;;;10.71;68.08;98516.72;5114057;27;45822;-71
2021/12/10 04:55:17;;;;;;;;;1.00;1.00;;;;;10.72;68.16;98526.59;5084568;27;45806;-72
2021/12/10 04:57:44;;;;;;;;;3.00;3.00;;;;;10.77;67.21;98529.38;5110302;27;45404;-72
2021/12/10 05:00:13;;;;;;;;;2.00;1.00;;;;;10.82;68.49;98530.50;5114592;27;45455;-75
2021/12/10 05:02:39;;;;;;;;;2.67;1.67;;;;;10.87;67.94;98536.84;5110055;27;45594;-78
2021/12/10 05:05:07;;;;;;;;;5.67;1.33;;;;;10.92;67.24;98538.78;5103790;27;46154;-77
2021/12/10 05:07:36;;;;;;;;;5.67;1.00;;;;;10.91;67.22;98535.22;5101955;27;45746;-73
2021/12/10 05:10:07;;;;;;;;;3.00;3.00;;;;;10.95;67.67;98541.00;5082714;27;45439;-78
2021/12/10 05:12:32;;;;;;;;;4.33;1.67;;;;;10.97;67.27;98548.94;5078215;27;46665;-77
2021/12/10 05:15:00;;;;;;;;;3.00;2.00;;;;;10.98;67.12;98550.63;5084534;27;45538;-77
2021/12/10 05:17:29;;;;;;;;;4.00;3.00;;;;;10.98;67.08;98562.41;5085877;27;45795;-78
2021/12/10 05:19:55;;;;;;;;;1.00;1.00;;;;;10.96;67.13;98556.38;5078301;27;45937;-74
2021/12/10 05:22:20;;;;;;;;;2.67;1.33;;;;;11.03;66.33;98565.19;5087964;27;47901;-78
2021/12/10 05:24:46;;;;;;;;;1.00;1.00;;;;;11.08;66.58;98581.66;5082406;27;46040;-73
2021/12/10 05:27:12;;;;;;;;;4.33;2.33;;;;;11.08;66.21;98589.88;5102601;27;45398;-73
2021/12/10 05:29:37;;;;;;;;;3.00;2.00;;;;;11.11;66.66;98578.38;5078363;27;46068;-78
2021/12/10 05:32:05;;;;;;;;;1.67;1.00;;;;;11.16;66.07;98591.31;5082140;27;47446;-77
2021/12/10 05:34:31;;;;;;;;;3.00;3.00;;;;;11.11;65.54;98591.28;5103697;27;45425;-78
2021/12/10 05:36:58;;;;;;;;;2.00;0.00;;;;;11.03;64.01;98589.88;5090377;27;45441;-74
2021/12/10 05:39:25;;;;;;;;;1.00;1.00;;;;;11.02;64.95;98590.13;5101467;27;45550;-75
2021/12/10 05:41:52;;;;;;;;;1.00;1.00;;;;;11.01;64.26;98600.28;5096074;27;45684;-77
2021/12/10 05:44:18;;;;;;;;;3.00;1.33;;;;;10.99;64.91;98583.25;5100682;27;45658;-74
2021/12/10 05:46:44;;;;;;;;;2.33;1.33;;;;;11.00;64.77;98617.00;5074108;27;45437;-79
2021/12/10 05:49:09;;;;;;;;;3.00;3.00;;;;;11.00;65.60;98625.22;5102300;27;46846;-79
2021/12/10 05:51:36;;;;;;;;;0.67;0.00;;;;;10.96;65.80;98622.19;5098767;27;45824;-78
2021/12/10 05:54:03;;;;;;;;;4.33;3.00;;;;;10.99;65.71;98623.56;5090950;27;45674;-75
2021/12/10 05:56:30;;;;;;;;;2.00;0.67;;;;;10.98;65.95;98617.25;5108267;27;45484;-72
2021/12/10 05:58:56;;;;;;;;;1.00;1.00;;;;;11.03;66.06;98631.03;5101807;27;45604;-72
2021/12/10 06:01:22;;;;;;;;;2.00;1.00;;;;;11.05;66.19;98631.56;5088279;27;46716;-78
2021/12/10 06:03:52;;;;;;;;;2.00;1.00;;;;;11.06;66.26;98633.22;5111737;27;45487;-74
2021/12/10 06:06:29;;;;;;;;;1.33;1.33;;;;;11.05;66.21;98634.31;5108930;27;45551;-75
2021/12/10 06:08:57;;;;;;;;;6.00;2.00;;;;;11.04;66.21;98654.59;5096644;27;46006;-72
2021/12/10 06:11:24;;;;;;;;;2.00;1.00;;;;;10.99;65.75;98651.81;5093635;27;46700;-75
2021/12/10 06:13:51;;;;;;;;;2.33;1.00;;;;;10.99;65.23;98662.81;5113216;27;45561;-69
2021/12/10 06:16:16;;;;;;;;;3.00;1.67;;;;;10.96;65.41;98660.59;5105936;27;45650;-74
2021/12/10 06:18:43;;;;;;;;;3.00;0.67;;;;;10.93;66.02;98672.91;5093561;27;45811;-74
2021/12/10 06:21:08;;;;;;;;;3.67;2.67;;;;;10.97;65.37;98664.97;5113510;27;45619;-75
2021/12/10 06:23:34;;;;;;;;;3.00;1.00;;;;;10.96;65.33;98657.84;5098310;27;45363;-75
2021/12/10 06:26:00;;;;;;;;;2.00;1.00;;;;;10.97;65.03;98656.72;5114600;27;45503;-74
2021/12/10 06:28:25;;;;;;;;;3.67;3.00;;;;;10.98;65.21;98672.09;5107646;27;45590;-76
2021/12/10 06:30:52;;;;;;;;;0.00;0.00;;;;;10.97;65.25;98673.19;5091149;27;47889;-69
2021/12/10 06:33:21;;;;;;;;;1.67;1.00;;;;;10.97;64.67;98675.94;5094593;27;45911;-72
2021/12/10 06:35:49;;;;;;;;;1.67;1.00;;;;;10.98;64.43;98688.56;5114445;27;45618;-74
2021/12/10 06:38:16;;;;;;;;;5.00;1.00;;;;;11.00;64.82;98686.38;5095267;27;46945;-72
2021/12/10 06:40:43;;;;;;;;;1.33;1.33;;;;;11.00;65.53;98689.13;5093771;27;46780;-71
2021/12/10 06:43:11;;;;;;;;;1.00;1.00;;;;;11.00;65.13;98696.53;5095761;27;45791;-75
2021/12/10 06:45:38;;;;;;;;;2.00;2.00;;;;;11.06;65.19;98698.22;5114515;27;45569;-75
2021/12/10 06:48:06;;;;;;;;;4.67;2.00;;;;;11.05;64.90;98716.59;5107728;27;45846;-71
2021/12/10 06:50:36;;;;;;;;;3.00;2.00;;;;;11.07;65.74;98730.88;5095404;27;48440;-70
2021/12/10 06:53:02;;;;;;;;;1.00;1.00;;;;;11.01;65.32;98731.94;5114678;27;45639;-71
2021/12/10 06:55:29;;;;;;;;;4.00;1.00;;;;;11.01;65.24;98748.38;5114063;27;45439;-71
2021/12/10 06:57:55;;;;;;;;;4.67;1.00;;;;;10.98;66.37;98753.56;5077813;27;45716;-71
2021/12/10 07:00:29;;;;;;;;;2.00;1.00;;;;;10.94;65.07;98753.25;5106726;27;46288;-72
2021/12/10 07:02:55;;;;;;;;;0.33;0.00;;;;;10.91;65.80;98778.44;5113357;27;45883;-70
2021/12/10 07:05:20;;;;;;;;;2.33;1.00;;;;;10.92;65.86;98771.88;5114429;27;45659;-75
2021/12/10 07:07:46;;;;;;;;;2.33;2.33;;;;;10.92;66.38;98788.34;5116813;27;46180;-76
2021/12/10 07:10:14;;;;;;;;;4.00;3.00;;;;;10.87;66.17;98796.53;5107034;27;46158;-70
2021/12/10 07:12:42;;;;;;;;;0.33;0.00;;;;;10.70;65.84;98791.13;5087379;27;45561;-71
2021/12/10 07:15:11;;;;;;;;;0.00;0.00;;;;;10.75;65.45;98803.00;5098804;27;45876;-71
2021/12/10 07:17:42;;;;;;;;;1.67;1.00;;;;;10.70;66.16;98805.69;5102077;27;45804;-70
2021/12/10 07:20:12;;;;;;;;;2.00;2.00;;;;;10.71;66.14;98804.59;5095503;27;46288;-70
2021/12/10 07:22:38;;;;;;;;;0.67;0.67;;;;;10.67;64.64;98814.41;5114868;27;45323;-75
2021/12/10 07:25:05;;;;;;;;;2.00;0.00;;;;;10.57;63.96;98831.56;5115433;27;46065;-74
2021/12/10 07:27:31;;;;;;;;;0.00;0.00;;;;;10.54;64.00;98834.00;5117814;27;45382;-76
2021/12/10 07:29:57;;;;;;;;;0.00;0.00;;;;;10.39;63.12;98834.66;5108570;27;47187;-71
2021/12/10 07:32:22;;;;;;;;;0.00;0.00;;;;;10.41;64.71;98841.50;5115897;27;45828;-75
2021/12/10 07:35:36;;;;;;;;;0.00;0.00;;;;;10.25;64.29;98853.31;5103462;27;45859;-69
2021/12/10 07:38:03;;;;;;;;;0.00;0.00;;;;;10.25;63.88;98856.06;5082106;27;46483;-70
2021/12/10 07:40:32;;;;;;;;;0.00;0.00;;;;;10.24;63.39;98857.16;5082481;27;45995;-74
2021/12/10 07:42:58;;;;;;;;;2.00;1.00;;;;;10.23;64.27;98869.19;5080470;27;45666;-76
2021/12/10 07:45:25;;;;;;;;;1.00;0.00;;;;;10.20;63.94;98877.94;5072308;27;46213;-76
2021/12/10 07:47:58;;;;;;;;;0.67;0.00;;;;;10.18;62.68;98882.81;5107356;27;45752;-74
2021/12/10 07:50:32;;;;;;;;;1.00;0.00;;;;;10.07;63.22;98879.09;5072809;27;45730;-77
2021/12/10 07:52:58;;;;;;;;;1.00;1.00;;;;;10.08;62.52;98869.81;5079839;27;46084;-74
2021/12/10 07:55:27;;;;;;;;;0.00;0.00;;;;;10.07;61.84;98890.91;5087149;27;45645;-73
2021/12/10 07:57:53;;;;;;;;;0.00;0.00;;;;;10.10;61.93;98897.78;5072580;27;47017;-72
2021/12/10 08:00:21;;;;;;;;;1.67;0.67;;;;;10.16;61.84;98901.41;5079177;27;45364;-71
2021/12/10 08:02:48;;;;;;;;;2.00;0.00;;;;;10.17;61.27;98908.56;5071772;27;45931;-72
2021/12/10 08:05:16;;;;;;;;;1.33;1.33;;;;;10.21;61.67;98912.47;5084189;27;46895;-71
2021/12/10 08:07:41;;;;;;;;;0.67;0.67;;;;;10.18;61.53;98921.16;5077399;27;45259;-71
2021/12/10 08:10:10;;;;;;;;;0.00;0.00;;;;;10.22;61.55;98916.84;5074643;27;45800;-76
2021/12/10 08:12:35;;;;;;;;;4.00;1.00;;;;;10.21;60.86;98934.38;5078929;27;46084;-76
2021/12/10 08:15:03;;;;;;;;;2.67;1.00;;;;;10.20;60.97;98932.72;5080146;27;45788;-78
2021/12/10 08:17:28;;;;;;;;;2.33;1.00;;;;;10.24;60.73;98944.84;5082410;27;46225;-77
2021/12/10 08:19:54;;;;;;;;;3.00;2.00;;;;;10.29;59.55;98953.13;5083341;27;45684;-75
2021/12/10 08:22:20;;;;;;;;;2.00;1.00;;;;;10.30;59.49;98965.75;5084144;27;45852;-75
2021/12/10 08:24:47;;;;;;;;;1.67;1.33;;;;;10.31;58.79;98969.31;5085094;27;46576;-76
2021/12/10 08:27:13;;;;;;;;;2.00;1.00;;;;;10.32;58.75;98977.28;5081128;27;45768;-75
2021/12/10 08:29:42;;;;;;;;;0.00;0.00;;;;;10.35;58.11;98976.81;5074480;27;45654;-75
2021/12/10 08:32:09;;;;;;;;;6.00;1.00;;;;;10.32;56.90;98980.00;5078197;27;45826;-77
2021/12/10 08:34:34;;;;;;;;;0.00;0.00;;;;;10.37;57.78;98990.25;5080795;27;46257;-75
2021/12/10 08:37:00;;;;;;;;;0.00;0.00;;;;;10.38;57.60;98992.75;5082116;27;45400;-75
2021/12/10 08:39:26;;;;;;;;;0.00;0.00;;;;;10.41;57.32;99007.84;5088266;27;45419;-77
2021/12/10 08:41:55;;;;;;;;;2.33;0.00;;;;;10.42;58.14;99002.13;5077502;27;45655;-71
2021/12/10 08:44:21;;;;;;;;;2.33;0.67;;;;;10.50;57.02;99019.22;5079507;27;46028;-76
2021/12/10 08:46:46;;;;;;;;;2.00;1.00;;;;;10.49;58.13;99020.31;5069041;28;45938;-71
2021/12/10 08:49:13;;;;;;;;;1.00;1.00;;;;;10.56;57.48;99030.00;5075882;27;45496;-75
2021/12/10 08:51:46;;;;;;;;;1.00;1.00;;;;;10.63;57.00;99032.59;5066103;27;46013;-76
2021/12/10 08:54:12;;;;;;;;;0.33;0.33;;;;;10.65;56.91;99035.91;5065841;28;47334;-76
2021/12/10 08:56:40;;;;;;;;;0.33;0.33;;;;;10.68;57.06;99040.88;5073370;28;45815;-76
2021/12/10 08:59:07;;;;;;;;;1.67;1.67;;;;;10.75;56.63;99036.03;5071735;28;45943;-76
2021/12/10 09:01:37;;;;;;;;;0.67;0.67;;;;;10.83;56.98;99053.16;5064718;27;45690;-76
2021/12/10 09:04:06;;;;;;;;;0.67;0.00;;;;;10.81;56.61;99047.94;5057918;28;45796;-75
2021/12/10 09:06:34;;;;;;;;;2.67;1.00;;;;;10.86;56.16;99050.72;5064346;27;45871;-76
2021/12/10 09:09:01;;;;;;;;;4.00;1.33;;;;;10.83;56.89;99053.16;5065081;27;45859;-77
2021/12/10 09:11:27;;;;;;;;;5.33;1.67;;;;;10.88;56.78;99054.06;5064053;28;45488;-77
2021/12/10 09:13:53;;;;;;;;;2.67;1.00;;;;;11.25;55.74;99066.34;5074086;27;46903;-76
2021/12/10 09:16:25;;;;;;;;;2.67;2.00;;;;;11.62;55.03;99071.19;5066892;27;45453;-75
2021/12/10 09:18:57;;;;;;;;;0.67;0.67;;;;;11.66;55.04;99070.41;5075558;28;45948;-71
2021/12/10 09:21:48;;;;;;;;;3.00;0.33;;;;;11.61;55.39;99091.47;5066705;28;46282;-71
2021/12/10 09:24:18;;;;;;;;;2.00;2.00;;;;;11.59;55.06;99078.00;5069572;28;47305;-76
2021/12/10 09:26:46;;;;;;;;;1.00;1.00;;;;;11.59;55.05;99096.41;5066333;28;45444;-77
2021/12/10 09:29:14;;;;;;;;;2.00;2.00;;;;;11.63;55.83;99090.16;5064374;27;45934;-72
2021/12/10 09:31:42;;;;;;;;;3.67;0.00;;;;;11.66;55.45;99103.34;5064146;28;45991;-71
2021/12/10 09:34:10;;;;;;;;;1.67;1.67;;;;;11.70;55.53;99095.44;5065576;28;45689;-72
2021/12/10 09:36:36;;;;;;;;;2.00;2.00;;;;;11.73;54.95;99111.38;5055500;28;45363;-69
2021/12/10 09:39:06;;;;;;;;;3.00;2.00;;;;;11.79;55.33;99110.34;5062029;27;45710;-70
2021/12/10 09:41:31;;;;;;;;;1.67;1.67;;;;;11.85;54.47;99124.97;5062640;28;45671;-76
2021/12/10 09:43:57;;;;;;;;;1.67;1.67;;;;;12.09;54.07;99135.72;5053822;28;45454;-76
2021/12/10 09:46:22;;;;;;;;;2.00;2.00;;;;;12.39;53.25;99126.13;5056265;28;46399;-74
2021/12/10 09:48:51;;;;;;;;;2.33;1.67;;;;;12.80;52.44;99124.53;5077983;27;45817;-77
2021/12/10 09:51:29;;;;;;;;;5.00;2.00;;;;;13.30;51.37;99146.34;5072516;28;45641;-71
2021/12/10 09:54:01;;;;;;;;;4.67;1.33;;;;;13.80;49.90;99144.13;5070189;28;48345;-76
2021/12/10 09:56:28;;;;;;;;;2.33;1.00;;;;;13.92;48.96;99155.72;5057371;28;45677;-71
2021/12/10 09:58:54;;;;;;;;;2.00;1.67;;;;;13.98;48.48;99162.09;5058297;28;45690;-72
2021/12/10 10:01:28;;;;;;;;;2.00;1.33;;;;;14.18;48.62;99145.63;5072832;28;45475;-71
2021/12/10 10:04:00;;;;;;;;;3.00;2.00;;;;;14.28;47.44;99175.13;5072412;27;45515;-70
2021/12/10 10:06:28;;;;;;;;;2.33;1.67;;;;;14.03;47.04;99179.47;5075019;27;45716;-71
2021/12/10 10:08:53;;;;;;;;;1.00;0.33;;;;;13.85;48.87;99178.03;5070691;28;45500;-71
2021/12/10 10:11:27;;;;;;;;;3.33;0.67;;;;;13.67;48.57;99176.59;5057212;28;45358;-73
2021/12/10 10:13:54;;;;;;;;;0.00;0.00;;;;;13.43;48.20;99181.69;5052600;28;45612;-72
2021/12/10 10:16:22;;;;;;;;;3.00;0.67;;;;;13.18;48.23;99193.34;5064157;28;45537;-71
2021/12/10 10:18:50;;;;;;;;;4.00;1.33;;;;;13.02;48.71;99173.13;5072532;28;45469;-76
2021/12/10 10:21:31;;;;;;;;;1.33;0.67;;;;;13.25;48.39;99193.94;5075936;27;45464;-77
2021/12/10 10:23:57;;;;;;;;;1.67;0.67;;;;;13.34;48.00;99200.63;5066972;27;46776;-71
2021/12/10 10:26:32;;;;;;;;;2.67;1.67;;;;;13.60;47.33;99206.28;5059294;28;45477;-72
2021/12/10 10:29:29;;;;;;;;;3.33;1.00;;;;;13.67;48.38;99212.41;5058081;27;45394;-76
2021/12/10 10:31:59;;;;;;;;;6.00;2.33;;;;;13.68;46.75;99210.47;5070638;28;45655;-70
2021/12/10 10:34:26;;;;;;;;;4.00;2.00;;;;;13.72;46.48;99206.91;5070545;27;45860;-72
2021/12/10 10:36:52;;;;;;;;;1.00;1.00;;;;;13.81;46.17;99221.00;5063633;28;45760;-77
2021/12/10 10:39:25;;;;;;;;;1.33;0.67;;;;;14.00;45.39;99209.53;5056079;28;45409;-78
2021/12/10 10:41:54;;;;;;;;;2.67;0.67;;;;;14.18;46.04;99217.31;5061025;27;45475;-76
2021/12/10 10:44:22;;;;;;;;;0.67;0.67;;;;;14.21;45.83;99226.97;5074477;28;45724;-77
2021/12/10 10:46:48;;;;;;;;;1.33;1.33;;;;;14.21;44.74;99229.72;5061093;27;45860;-71
2021/12/10 10:49:35;;;;;;;;;2.00;2.00;;;;;14.00;45.70;99232.41;5069513;28;45894;-77
2021/12/10 10:52:19;;;;;;;;;0.67;0.67;;;;;14.03;45.90;99237.38;5072327;28;45777;-71
2021/12/10 10:54:47;;;;;;;;;1.33;1.33;;;;;14.10;45.62;99253.66;5065279;28;45558;-72
2021/12/10 10:57:24;;;;;;;;;3.33;0.67;;;;;13.90;43.93;99257.16;5060875;28;45420;-78
2021/12/10 10:59:57;;;;;;;;;1.33;0.67;;;;;13.84;45.98;99242.50;5076479;27;45735;-77
2021/12/10 11:02:27;;;;;;;;;3.00;2.33;;;;;13.82;45.25;99246.63;5061968;28;45584;-76
2021/12/10 11:04:53;;;;;;;;;6.67;5.00;;;;;13.88;44.74;99254.66;5058012;28;45567;-77
2021/12/10 11:07:27;;;;;;;;;9.67;8.67;;;;;13.61;44.72;99268.56;5074499;27;45487;-78
2021/12/10 11:10:04;;;;;;;;;4.33;4.00;;;;;13.50;44.17;99251.16;5061325;28;45644;-77
2021/12/10 11:12:38;;;;;;;;;10.67;7.00;;;;;13.53;44.10;99264.38;5072483;28;45641;-77
2021/12/10 11:15:10;;;;;;;;;14.00;11.00;;;;;13.54;45.13;99266.03;5084314;27;46874;-71
2021/12/10 11:17:43;;;;;;;;;7.00;5.67;;;;;13.53;44.26;99266.28;5070866;27;45552;-74
2021/12/10 11:20:10;;;;;;;;;4.33;3.67;;;;;13.66;44.01;99278.78;5062900;27;45700;-79
2021/12/10 11:22:48;;;;;;;;;7.33;7.33;;;;;13.63;43.84;99276.56;5069372;28;45729;-80
2021/12/10 11:25:19;;;;;;;;;13.33;13.33;;;;;13.57;44.76;99278.44;5074149;28;47250;-78
2021/12/10 11:27:52;;;;;;;;;8.67;6.33;;;;;13.56;43.52;99274.03;5069770;28;45569;-73
2021/12/10 11:30:25;;;;;;;;;5.33;3.00;;;;;13.46;43.09;99285.81;5061486;28;46130;-72
2021/12/10 11:32:54;;;;;;;;;5.67;4.00;;;;;13.27;43.79;99284.53;5067525;28;45527;-78
2021/12/10 11:35:28;;;;;;;;;5.00;5.00;;;;;13.12;44.38;99297.06;5066724;28;45737;-71
2021/12/10 11:38:05;;;;;;;;;12.33;12.00;;;;;13.13;45.02;99309.72;5069550;28;45531;-77
2021/12/10 11:40:49;;;;;;;;;12.67;8.00;;;;;13.09;45.54;99292.06;5065747;27;45612;-78
2021/12/10 11:48:44;;;;;;;;;9.00;6.33;;;;;13.15;43.81;99302.03;5069348;27;45798;-78
2021/12/10 11:51:20;;;;;;;;;4.00;3.00;;;;;13.13;43.39;99309.72;5067338;28;44820;-78
2021/12/10 11:53:53;;;;;;;;;1.67;1.67;;;;;13.20;43.49;99329.63;5061722;28;45771;-77
2021/12/10 12:00:11;;;;;;;;;4.67;3.33;;;;;12.92;42.98;99297.69;5011952;28;45519;-81
2021/12/10 12:02:48;;;;;;;;;2.33;2.00;;;;;13.03;43.39;99339.91;5039827;28;45848;-75
2021/12/10 12:05:20;;;;;;;;;7.33;2.00;;;;;12.94;43.51;99344.22;5058752;28;45707;-77